Time;durP1;ratioP1;P1;durP2;ratioP2;P2;SDS_P1;SDS_P2;PMS_P1;PMS_P2;Temp;Humidity;BMP_temperature;BMP_pressure;BME280_temperature;BME280_humidity;BME280_pressure;Samples;Min_cycle;Max_cycle;Signal;HPM_P1;HPM_P2
2022/04/20 00:00:15;;;;;;;5.53;4.65;;;;;;;8.33;47.59;95034.75;5030026;28;20045;-70
2022/04/20 00:02:41;;;;;;;5.47;4.93;;;;;;;8.54;48.13;95072.31;5034985;28;20045;-71
2022/04/20 00:05:07;;;;;;;5.65;5.15;;;;;;;8.54;48.07;95072.31;5033702;28;20052;-70
2022/04/20 00:07:33;;;;;;;4.60;4.20;;;;;;;8.54;47.81;95064.38;5034863;28;20430;-70
2022/04/20 00:09:59;;;;;;;4.65;4.28;;;;;;;8.46;48.21;95065.84;5034561;28;20032;-70
2022/04/20 00:12:25;;;;;;;4.97;4.45;;;;;;;7.88;48.09;94985.97;5034447;28;20038;-70
2022/04/20 00:14:51;;;;;;;4.72;4.40;;;;;;;8.44;48.05;95064.56;5034746;28;20322;-72
2022/04/20 00:17:17;;;;;;;4.88;4.47;;;;;;;8.46;47.83;95067.72;5034684;28;20025;-71
2022/04/20 00:19:42;;;;;;;4.85;4.35;;;;;;;8.41;48.07;95067.81;5034458;28;20031;-71
2022/04/20 00:22:08;;;;;;;4.60;4.25;;;;;;;8.03;48.08;95006.91;5033897;28;20022;-71
2022/04/20 00:24:33;;;;;;;4.85;4.45;;;;;;;7.73;48.31;94961.34;5034433;28;20359;-70
2022/04/20 00:26:58;;;;;;;5.15;4.25;;;;;;;7.96;47.82;94999.34;5033908;28;20104;-70
2022/04/20 00:29:24;;;;;;;4.82;4.43;;;;;;;8.16;48.30;95026.59;5034749;28;20049;-71
2022/04/20 00:31:49;;;;;;;5.22;4.82;;;;;;;7.68;48.46;94958.00;5034310;28;20017;-71
2022/04/20 00:34:15;;;;;;;5.60;5.10;;;;;;;8.20;48.11;95049.56;5032803;28;20547;-70
2022/04/20 00:36:40;;;;;;;5.30;4.60;;;;;;;8.04;48.93;95043.72;5034536;28;20528;-71
2022/04/20 00:39:06;;;;;;;5.10;4.30;;;;;;;7.80;50.14;95062.38;5034539;28;20037;-71
2022/04/20 00:41:32;;;;;;;5.45;4.95;;;;;;;8.14;49.39;95056.03;5032975;28;20482;-70
2022/04/20 00:43:59;;;;;;;5.15;4.75;;;;;;;7.41;49.28;94956.78;5033265;28;20071;-72
2022/04/20 00:46:26;;;;;;;5.28;4.80;;;;;;;7.96;49.25;95033.78;5034148;28;20389;-71
2022/04/20 00:48:52;;;;;;;5.43;5.03;;;;;;;7.86;49.18;95036.59;5034284;28;20061;-71
2022/04/20 00:51:17;;;;;;;5.65;5.15;;;;;;;7.94;49.00;95056.34;5048868;28;20029;-72
2022/04/20 00:53:43;;;;;;;5.75;4.75;;;;;;;7.68;49.66;95013.59;5034260;28;20045;-72
2022/04/20 00:56:08;;;;;;;5.22;4.82;;;;;;;7.74;49.33;95023.03;5032904;28;20018;-71
2022/04/20 00:58:35;;;;;;;5.35;4.95;;;;;;;7.50;49.39;94980.75;5032973;28;20033;-70
2022/04/20 01:01:01;;;;;;;5.93;5.15;;;;;;;7.89;49.26;95041.31;5033300;28;20513;-72
2022/04/20 01:03:27;;;;;;;6.05;5.32;;;;;;;7.62;49.49;94998.84;5032436;28;20033;-72
2022/04/20 01:05:52;;;;;;;7.13;5.35;;;;;;;7.53;50.23;95017.25;5033753;28;20029;-72
2022/04/20 01:08:18;;;;;;;5.63;5.13;;;;;;;7.01;49.80;94921.94;5032399;28;20184;-72
2022/04/20 01:10:43;;;;;;;5.68;5.10;;;;;;;7.13;50.70;94989.50;5033385;28;20033;-71
2022/04/20 01:13:10;;;;;;;6.00;5.40;;;;;;;7.08;50.97;95000.16;5032809;28;20678;-72
2022/04/20 01:15:35;;;;;;;6.13;5.63;;;;;;;7.56;50.68;95038.63;5032642;28;20652;-72
2022/04/20 01:18:10;;;;;;;7.18;6.15;;;;;;;7.56;50.62;95029.88;5032408;28;20121;-71
2022/04/20 01:20:35;;;;;;;6.15;5.55;;;;;;;7.73;49.89;95047.94;5031928;28;20474;-71
2022/04/20 01:23:01;;;;;;;5.95;5.43;;;;;;;7.02;50.07;94947.31;5033563;28;20075;-72
2022/04/20 01:25:26;;;;;;;6.32;5.70;;;;;;;6.74;49.90;94890.06;5033760;28;20033;-72
2022/04/20 01:27:51;;;;;;;5.85;5.25;;;;;;;6.93;49.97;94921.78;5031277;28;20505;-72
2022/04/20 01:30:17;;;;;;;6.05;5.55;;;;;;;7.35;50.13;94986.28;5033206;28;20025;-71
2022/04/20 01:32:42;;;;;;;6.43;5.82;;;;;;;7.66;49.70;95044.84;5033404;28;20029;-72
2022/04/20 01:35:08;;;;;;;5.93;5.43;;;;;;;7.20;50.60;94995.22;5033511;28;20075;-70
2022/04/20 01:37:34;;;;;;;6.07;5.57;;;;;;;7.57;50.65;95036.75;5033537;28;20105;-70
2022/04/20 01:39:59;;;;;;;6.20;5.70;;;;;;;7.17;50.27;94993.94;5031877;28;20168;-69
2022/04/20 01:42:25;;;;;;;6.45;5.95;;;;;;;7.05;50.30;94964.47;5030843;28;20473;-70
2022/04/20 01:44:50;;;;;;;6.15;5.55;;;;;;;7.01;50.55;94964.25;5028685;28;20477;-70
2022/04/20 01:47:16;;;;;;;6.10;5.60;;;;;;;7.54;49.78;95045.28;5024977;28;20028;-71
2022/04/20 01:49:41;;;;;;;6.85;6.25;;;;;;;7.44;50.25;95029.56;5023261;28;20014;-70
2022/04/20 01:52:07;;;;;;;7.43;6.18;;;;;;;6.56;50.07;94896.91;5021767;28;20051;-71
2022/04/20 01:54:33;;;;;;;7.03;6.40;;;;;;;7.47;49.96;95034.25;5020136;28;20021;-71
2022/04/20 01:56:58;;;;;;;7.20;6.60;;;;;;;7.25;50.60;94997.78;5023612;28;20068;-71
2022/04/20 01:59:23;;;;;;;7.30;6.70;;;;;;;7.25;50.13;95003.84;5029967;28;20095;-70
2022/04/20 02:04:32;;;;;;;6.57;5.97;;;;;;;7.32;50.84;95037.09;5025917;28;20551;-70
2022/04/20 02:06:58;;;;;;;7.18;6.57;;;;;;;7.37;50.31;95029.91;5031999;28;20112;-70
2022/04/20 02:09:24;;;;;;;7.60;6.78;;;;;;;7.05;50.46;94977.69;5032670;28;20029;-70
2022/04/20 02:11:49;;;;;;;6.95;6.32;;;;;;;7.04;50.96;95005.22;5032558;28;20059;-71
2022/04/20 02:14:15;;;;;;;7.57;6.97;;;;;;;6.55;52.26;94989.66;5030695;28;20032;-71
2022/04/20 02:16:40;;;;;;;8.30;6.05;;;;;;;6.87;50.87;95000.41;5032747;28;20072;-70
2022/04/20 02:19:05;;;;;;;6.57;5.97;;;;;;;6.91;51.76;95016.47;5032288;28;20030;-71
2022/04/20 02:21:31;;;;;;;7.40;6.75;;;;;;;7.04;51.12;95015.78;5030647;28;20033;-69
2022/04/20 02:23:56;;;;;;;7.22;6.53;;;;;;;7.18;51.56;95037.81;5031742;28;20032;-70
2022/04/20 02:26:22;;;;;;;6.70;6.10;;;;;;;6.50;51.05;94930.53;5032342;28;20026;-71
2022/04/20 02:28:47;;;;;;;7.00;6.40;;;;;;;5.25;51.01;94770.59;5030867;28;20033;-69
2022/04/20 02:31:14;;;;;;;7.00;6.47;;;;;;;6.84;51.51;94982.44;5031707;28;20029;-69
2022/04/20 02:33:40;;;;;;;7.20;6.60;;;;;;;6.79;51.23;94987.81;5032144;28;20029;-70
2022/04/20 02:36:05;;;;;;;7.07;6.45;;;;;;;6.97;51.79;95023.28;5031989;28;20466;-69
2022/04/20 02:38:31;;;;;;;7.30;6.57;;;;;;;7.04;51.77;95029.78;5031950;28;20100;-69
2022/04/20 02:40:56;;;;;;;7.25;6.65;;;;;;;6.64;51.91;94994.06;5044562;23;20045;-63
2022/04/20 02:43:22;;;;;;;6.88;6.38;;;;;;;6.47;52.12;94983.94;5030111;28;20026;-64
2022/04/20 02:45:48;;;;;;;7.32;6.40;;;;;;;6.49;52.55;94994.22;5031614;28;20104;-64
2022/04/20 02:48:15;;;;;;;6.93;6.20;;;;;;;6.60;51.97;95014.19;5031341;28;20025;-63
2022/04/20 02:50:40;;;;;;;7.50;6.88;;;;;;;6.50;52.36;95006.38;5030062;28;20526;-64
2022/04/20 02:53:06;;;;;;;7.70;7.00;;;;;;;6.64;52.16;95001.97;5029632;28;20064;-65
2022/04/20 02:55:31;;;;;;;8.25;7.45;;;;;;;6.03;52.68;94951.66;5031362;28;20029;-64
2022/04/20 02:57:56;;;;;;;8.88;8.07;;;;;;;6.70;51.81;95027.28;5031425;28;20021;-64
2022/04/20 03:00:23;;;;;;;8.85;8.13;;;;;;;6.58;52.54;95010.25;5029553;28;20053;-63
2022/04/20 03:02:48;;;;;;;8.68;7.88;;;;;;;6.48;52.32;94993.44;5029696;28;20029;-64
2022/04/20 03:05:14;;;;;;;8.80;8.00;;;;;;;6.47;53.06;95022.78;5030944;28;20473;-63
2022/04/20 03:07:39;;;;;;;9.10;8.27;;;;;;;6.42;52.75;94996.44;5031176;28;20025;-64
2022/04/20 03:10:05;;;;;;;9.32;8.52;;;;;;;6.06;53.51;94975.66;5030940;28;20029;-64
2022/04/20 03:12:31;;;;;;;9.57;8.68;;;;;;;6.33;53.29;95000.75;5030958;28;20061;-64
2022/04/20 03:14:57;;;;;;;9.68;8.77;;;;;;;6.46;53.62;95023.88;5030557;28;20032;-64
2022/04/20 03:17:23;;;;;;;9.23;8.48;;;;;;;6.77;52.79;95030.38;5029638;28;20026;-64
2022/04/20 03:19:49;;;;;;;9.95;9.07;;;;;;;6.76;52.81;95026.19;5029654;28;20057;-65
2022/04/20 03:22:15;;;;;;;10.07;9.07;;;;;;;6.69;52.78;95028.34;5029313;28;20130;-64
2022/04/20 03:24:40;;;;;;;10.18;9.27;;;;;;;6.56;52.72;94997.34;5029553;28;20119;-64
2022/04/20 03:27:05;;;;;;;10.70;9.80;;;;;;;6.25;52.79;94983.66;5030806;28;20032;-64
2022/04/20 03:29:31;;;;;;;9.65;8.85;;;;;;;6.12;53.99;95014.16;5029364;28;20039;-63
2022/04/20 03:31:56;;;;;;;10.90;10.00;;;;;;;6.27;52.85;94978.09;5030146;28;20516;-63
2022/04/20 03:34:22;;;;;;;11.13;10.02;;;;;;;6.60;52.22;95016.03;5030295;28;20513;-64
2022/04/20 03:36:48;;;;;;;11.95;10.85;;;;;;;6.13;53.78;94978.75;5030864;28;20088;-64
2022/04/20 03:39:13;;;;;;;11.38;10.45;;;;;;;6.65;53.50;95027.34;5029230;28;20394;-64
2022/04/20 03:41:39;;;;;;;12.20;11.20;;;;;;;5.86;53.84;94947.56;5030423;28;20033;-63
2022/04/20 03:44:05;;;;;;;12.10;11.00;;;;;;;6.49;53.70;95012.72;5028978;28;20025;-64
2022/04/20 03:46:30;;;;;;;12.60;11.50;;;;;;;6.07;54.88;95000.19;5029345;28;20026;-64
2022/04/20 03:48:56;;;;;;;12.90;11.70;;;;;;;6.19;53.81;94984.75;5029349;28;20036;-64
2022/04/20 03:51:21;;;;;;;12.63;11.35;;;;;;;6.21;54.76;95014.34;5030141;28;20033;-65
2022/04/20 03:53:47;;;;;;;12.57;11.25;;;;;;;6.20;54.45;95003.00;5030134;28;20091;-64
2022/04/20 03:56:13;;;;;;;14.18;12.77;;;;;;;6.14;54.81;95013.84;5030688;28;20037;-64
2022/04/20 03:58:38;;;;;;;16.40;12.73;;;;;;;5.62;55.44;94963.31;5029403;28;20029;-64
2022/04/20 04:01:04;;;;;;;16.73;13.52;;;;;;;6.05;54.81;95003.13;5030082;28;20374;-64
2022/04/20 04:03:30;;;;;;;15.13;13.73;;;;;;;6.02;54.21;94971.22;5030416;28;20056;-65
2022/04/20 04:05:56;;;;;;;15.98;14.30;;;;;;;6.12;54.51;94994.88;5029160;28;20053;-64
2022/04/20 04:08:22;;;;;;;16.77;15.07;;;;;;;6.04;54.03;94975.16;5030550;28;20048;-65
2022/04/20 04:10:47;;;;;;;16.52;14.90;;;;;;;6.29;53.88;94992.56;5028854;28;20474;-64
2022/04/20 04:13:12;;;;;;;17.25;15.38;;;;;;;5.99;54.28;94948.81;5030211;28;20104;-64
2022/04/20 04:15:38;;;;;;;20.35;17.13;;;;;;;6.31;54.27;95010.81;5030396;28;20061;-64
2022/04/20 04:18:04;;;;;;;18.70;16.25;;;;;;;6.22;54.58;95006.13;5030363;28;20417;-64
2022/04/20 04:20:30;;;;;;;20.30;17.23;;;;;;;5.48;55.26;94933.38;5028512;28;20526;-64
2022/04/20 04:22:56;;;;;;;20.40;18.35;;;;;;;6.15;55.21;95015.44;5030100;28;20075;-63
2022/04/20 04:25:21;;;;;;;19.35;17.25;;;;;;;6.08;55.26;95002.56;5030349;28;20018;-65
2022/04/20 04:27:47;;;;;;;22.75;18.50;;;;;;;6.07;55.90;95013.41;5030249;28;20395;-64
2022/04/20 04:30:13;;;;;;;21.73;18.55;;;;;;;5.70;56.22;94988.34;5029677;28;20143;-64
2022/04/20 04:32:39;;;;;;;20.52;18.33;;;;;;;5.88;56.46;95010.63;5030048;28;20025;-65
2022/04/20 04:35:05;;;;;;;24.85;19.02;;;;;;;5.64;56.17;94953.31;5030114;28;20029;-64
2022/04/20 04:37:31;;;;;;;20.35;18.13;;;;;;;6.28;56.78;95035.91;5030254;28;20393;-63
2022/04/20 04:39:56;;;;;;;19.35;17.35;;;;;;;6.42;55.68;95033.41;5029749;28;20037;-63
2022/04/20 04:42:22;;;;;;;21.58;18.38;;;;;;;6.64;55.28;95022.34;5029472;28;20033;-65
2022/04/20 04:44:47;;;;;;;22.40;17.48;;;;;;;6.01;56.37;95006.59;5028713;28;20068;-63
2022/04/20 04:49:57;;;;;;;18.38;16.58;;;;;;;6.36;56.12;95010.75;5033330;28;20041;-64
2022/04/20 04:52:22;;;;;;;19.45;17.60;;;;;;;6.73;54.75;95021.44;5033212;28;20385;-66
2022/04/20 04:54:48;;;;;;;19.73;15.82;;;;;;;6.70;54.30;94990.28;5033546;28;20048;-65
2022/04/20 04:57:14;;;;;;;17.08;15.48;;;;;;;6.90;53.84;95020.19;5033415;28;20109;-65
2022/04/20 04:59:40;;;;;;;17.55;15.75;;;;;;;6.84;54.16;95040.63;5031860;28;20478;-64
2022/04/20 05:02:06;;;;;;;16.92;15.43;;;;;;;7.18;53.17;95024.59;5033021;28;20025;-64
2022/04/20 05:04:33;;;;;;;18.30;16.00;;;;;;;7.00;52.94;94994.41;5031937;28;20580;-64
2022/04/20 05:06:59;;;;;;;18.77;16.05;;;;;;;7.33;53.00;95028.13;5032103;28;20029;-64
2022/04/20 05:09:24;;;;;;;19.08;17.17;;;;;;;7.13;52.71;95002.72;5033193;28;20534;-63
2022/04/20 05:11:50;;;;;;;20.88;17.13;;;;;;;6.81;53.81;94996.25;5032655;28;20034;-64
2022/04/20 05:14:16;;;;;;;18.10;16.20;;;;;;;7.14;52.96;95028.88;5033352;28;20018;-66
2022/04/20 05:16:41;;;;;;;18.25;16.35;;;;;;;6.71;53.87;94981.28;5033113;28;20033;-64
2022/04/20 05:19:07;;;;;;;19.10;16.58;;;;;;;7.02;53.53;95042.53;5031350;28;20033;-63
2022/04/20 05:21:32;;;;;;;17.27;15.57;;;;;;;7.01;53.28;95021.63;5031254;28;20033;-64
2022/04/20 05:24:01;;;;;;;18.02;16.23;;;;;;;7.28;52.82;95032.41;5031622;28;20029;-63
2022/04/20 05:26:26;;;;;;;18.33;16.42;;;;;;;7.18;53.36;95032.53;5032705;28;20051;-63
2022/04/20 05:28:54;;;;;;;17.92;16.25;;;;;;;7.44;52.19;95009.16;5032698;28;20029;-65
2022/04/20 05:31:20;;;;;;;17.42;15.82;;;;;;;7.64;52.64;95042.50;5032429;28;20071;-65
2022/04/20 05:33:46;;;;;;;17.58;15.88;;;;;;;7.61;51.57;94998.06;5031648;28;20025;-67
2022/04/20 05:36:12;;;;;;;17.35;15.65;;;;;;;7.67;52.58;95047.19;5031295;28;20021;-64
2022/04/20 05:41:39;;;;;;;17.13;15.38;;;;;;;7.39;53.21;95014.53;5032355;28;20049;-62
2022/04/20 05:44:06;;;;;;;16.77;15.07;;;;;;;7.58;52.78;95032.28;5032569;28;20024;-62
2022/04/20 05:46:33;;;;;;;18.00;14.32;;;;;;;7.36;51.54;94962.16;5032414;28;20038;-63
2022/04/20 05:48:58;;;;;;;16.60;14.93;;;;;;;7.77;51.88;95039.09;5031610;28;20116;-62
2022/04/20 05:51:24;;;;;;;14.73;13.23;;;;;;;7.45;52.69;95018.66;5032312;28;20101;-62
2022/04/20 05:53:49;;;;;;;19.98;14.15;;;;;;;8.09;52.03;95045.53;5031465;28;20107;-62
2022/04/20 05:56:15;;;;;;;15.45;14.15;;;;;;;7.62;52.82;95041.19;5032792;28;20022;-64
2022/04/20 05:58:40;;;;;;;15.63;14.13;;;;;;;7.71;51.87;95056.13;5031412;28;20033;-63
2022/04/20 06:01:05;;;;;;;14.73;13.43;;;;;;;7.90;51.70;95031.50;5030322;28;20134;-63
2022/04/20 06:03:31;;;;;;;14.20;12.77;;;;;;;7.73;51.29;95006.34;5031635;28;20030;-63
2022/04/20 06:05:56;;;;;;;15.77;14.13;;;;;;;8.21;51.36;95023.84;5032294;28;20053;-63
2022/04/20 06:08:21;;;;;;;15.27;13.88;;;;;;;8.53;50.43;95050.34;5032344;28;20466;-63
2022/04/20 06:10:47;;;;;;;15.13;13.63;;;;;;;8.31;50.30;95013.06;5030296;28;20113;-64
2022/04/20 06:13:12;;;;;;;14.10;12.75;;;;;;;8.16;50.59;95030.03;5032344;28;20017;-64
2022/04/20 06:15:38;;;;;;;14.18;12.90;;;;;;;8.76;49.66;95032.69;5032200;28;20021;-63
2022/04/20 06:18:03;;;;;;;13.25;11.93;;;;;;;8.69;50.07;95063.31;5031496;28;20064;-63
2022/04/20 06:20:29;;;;;;;14.27;13.07;;;;;;;8.45;49.99;95047.59;5031648;28;20033;-63
2022/04/20 06:22:55;;;;;;;12.85;11.65;;;;;;;8.42;49.70;95005.75;5031930;28;20032;-63
2022/04/20 06:25:20;;;;;;;12.38;11.27;;;;;;;8.85;50.34;95004.41;5030760;28;20454;-71
2022/04/20 06:27:46;;;;;;;12.38;11.13;;;;;;;9.42;49.33;95025.25;5030367;28;20033;-70
2022/04/20 06:30:11;;;;;;;12.73;11.45;;;;;;;9.74;48.24;95016.31;5030015;28;20033;-71
2022/04/20 06:32:37;;;;;;;12.32;11.15;;;;;;;10.01;47.21;95025.25;5029858;28;20110;-72
2022/04/20 06:35:03;;;;;;;11.05;9.93;;;;;;;9.97;46.75;95005.66;5031496;28;20082;-71
2022/04/20 06:37:28;;;;;;;11.38;10.38;;;;;;;10.02;45.92;95032.91;5032027;28;20025;-70
2022/04/20 06:39:56;;;;;;;10.85;9.93;;;;;;;10.07;46.13;95042.63;5031462;28;20095;-71
2022/04/20 06:42:22;;;;;;;10.05;9.25;;;;;;;10.21;45.95;95011.44;5029412;28;20088;-66
2022/04/20 06:44:47;;;;;;;10.45;9.40;;;;;;;10.57;44.70;95021.22;5031740;28;20709;-67
2022/04/20 06:47:12;;;;;;;11.43;10.32;;;;;;;10.88;44.95;95029.94;5030364;28;20021;-66
2022/04/20 06:49:38;;;;;;;10.02;9.13;;;;;;;10.91;44.15;95039.97;5030631;28;20030;-67
2022/04/20 07:00:16;;;;;;;9.77;8.88;;;;;;;10.71;43.17;95021.13;5030896;28;20052;-64
2022/04/20 07:02:42;;;;;;;10.30;9.30;;;;;;;10.06;43.66;95004.63;5030626;28;20037;-64
2022/04/20 07:05:09;;;;;;;9.75;8.95;;;;;;;10.48;43.48;94972.50;5030726;28;20022;-64
2022/04/20 07:07:34;;;;;;;9.52;8.20;;;;;;;10.94;42.74;95026.03;5031344;28;20026;-65
2022/04/20 07:10:00;;;;;;;10.88;9.57;;;;;;;10.84;42.73;95006.91;5030675;28;20108;-63
2022/04/20 07:12:25;;;;;;;10.30;9.48;;;;;;;11.13;42.81;95015.13;5030793;28;20112;-64
2022/04/20 07:14:51;;;;;;;10.00;8.88;;;;;;;10.72;42.77;94999.53;5030378;28;20044;-64
2022/04/20 07:17:17;;;;;;;9.68;8.88;;;;;;;10.74;42.60;94999.22;5031097;28;20028;-64
2022/04/20 07:19:42;;;;;;;10.13;9.23;;;;;;;10.55;42.07;94992.28;5028932;28;20044;-64
2022/04/20 07:22:07;;;;;;;10.35;9.35;;;;;;;10.31;43.23;95023.75;5030753;28;20060;-65
2022/04/20 07:24:33;;;;;;;9.63;8.82;;;;;;;10.28;43.44;95003.06;5029972;28;20029;-64
2022/04/20 07:26:58;;;;;;;9.82;8.93;;;;;;;10.79;43.60;95015.81;5031460;28;20382;-64
2022/04/20 07:29:23;;;;;;;12.23;8.32;;;;;;;10.67;42.52;94992.47;5030987;28;20072;-63
2022/04/20 07:31:49;;;;;;;10.73;9.40;;;;;;;10.04;43.20;94990.88;5030858;28;20032;-64
2022/04/20 07:34:14;;;;;;;10.55;9.63;;;;;;;9.96;44.07;94999.56;5029238;28;20057;-64
2022/04/20 07:36:40;;;;;;;10.35;9.30;;;;;;;10.38;42.72;94979.66;5030822;28;20025;-65
2022/04/20 07:39:05;;;;;;;9.23;8.52;;;;;;;10.26;42.45;94976.03;5029329;28;20032;-65
2022/04/20 07:41:30;;;;;;;9.98;8.98;;;;;;;10.21;43.21;95023.97;5030879;28;20120;-66
2022/04/20 07:43:56;;;;;;;8.60;7.90;;;;;;;8.96;43.67;94936.00;5029279;28;20410;-67
2022/04/20 07:46:22;;;;;;;9.25;8.45;;;;;;;10.02;43.14;95029.47;5030788;28;20421;-64
2022/04/20 07:48:48;;;;;;;8.88;8.18;;;;;;;10.40;42.49;95012.06;5029742;28;20027;-64
2022/04/20 07:51:13;;;;;;;9.77;8.90;;;;;;;10.11;42.48;94985.13;5029135;28;20385;-65
2022/04/20 07:53:39;;;;;;;10.15;9.15;;;;;;;10.87;41.96;95024.94;5030456;28;20108;-67
2022/04/20 07:56:05;;;;;;;8.50;7.80;;;;;;;10.07;43.03;95011.53;5029336;28;20083;-62
2022/04/20 07:58:31;;;;;;;8.90;8.10;;;;;;;10.10;42.23;94962.31;5030410;28;20026;-64
2022/04/20 08:00:57;;;;;;;9.38;8.57;;;;;;;10.31;42.23;94957.28;5030274;28;20041;-64
2022/04/20 08:03:23;;;;;;;8.30;7.60;;;;;;;10.74;41.09;95004.53;5029868;28;20037;-62
2022/04/20 08:05:54;;;;;;;8.43;7.70;;;;;;;10.51;41.32;95003.81;5030580;28;20378;-62
2022/04/20 08:08:24;;;;;;;8.68;7.88;;;;;;;10.40;40.68;95030.69;5028569;28;20036;-62
2022/04/20 08:10:51;;;;;;;9.27;7.70;;;;;;;10.60;40.43;94972.72;5030485;28;20098;-63
2022/04/20 08:16:01;;;;;;;9.65;8.68;;;;;;;10.93;39.76;95021.03;5030966;28;20099;-62
2022/04/20 08:18:27;;;;;;;8.60;7.80;;;;;;;11.24;40.62;95031.59;5029358;28;20029;-62
2022/04/20 08:20:53;;;;;;;11.07;9.30;;;;;;;10.76;42.28;95039.59;5030124;28;20095;-62
2022/04/20 08:23:19;;;;;;;10.48;9.48;;;;;;;11.19;40.81;95037.84;5033568;28;20036;-62
2022/04/20 08:25:45;;;;;;;9.60;8.70;;;;;;;11.33;40.75;95002.34;5033214;28;20119;-71
2022/04/20 08:28:12;;;;;;;9.68;8.77;;;;;;;11.26;40.65;95040.09;5032999;28;20509;-66
2022/04/20 08:30:39;;;;;;;8.75;7.95;;;;;;;11.04;40.62;95018.88;5033035;28;20036;-66
2022/04/20 08:33:06;;;;;;;9.35;8.57;;;;;;;10.61;41.01;95009.66;5032915;28;20591;-62
2022/04/20 08:35:35;;;;;;;9.18;8.32;;;;;;;10.98;40.58;95033.41;5033747;28;20083;-63
2022/04/20 08:38:01;;;;;;;8.63;7.82;;;;;;;11.11;40.53;94995.25;5033883;28;20021;-62
2022/04/20 08:40:28;;;;;;;9.95;7.53;;;;;;;11.28;39.47;95000.59;5031860;28;20512;-63
2022/04/20 08:42:54;;;;;;;9.63;7.35;;;;;;;10.99;39.12;95003.03;5034052;28;20037;-63
2022/04/20 08:45:20;;;;;;;6.97;6.40;;;;;;;11.33;36.97;94976.50;5034053;28;20022;-62
2022/04/20 08:47:49;;;;;;;6.88;6.28;;;;;;;11.59;37.05;95021.00;5033647;28;20033;-64
2022/04/20 08:50:15;;;;;;;6.10;5.50;;;;;;;11.21;36.63;94976.34;5032531;28;20738;-63
2022/04/20 08:52:42;;;;;;;6.93;6.32;;;;;;;11.48;37.01;95020.53;5033891;28;20030;-64
2022/04/20 08:55:15;;;;;;;7.53;6.82;;;;;;;11.64;36.51;94994.22;5032519;28;20044;-64
2022/04/20 08:57:44;;;;;;;6.97;6.38;;;;;;;12.02;36.11;95002.34;5033828;28;20037;-62
2022/04/20 09:00:13;;;;;;;6.60;5.72;;;;;;;11.86;35.15;95007.38;5033140;28;20037;-64
2022/04/20 09:02:39;;;;;;;6.50;5.90;;;;;;;12.46;34.96;95001.16;5033647;28;20556;-64
2022/04/20 09:05:05;;;;;;;7.18;6.38;;;;;;;12.26;36.10;95009.06;5032877;28;20037;-64
2022/04/20 09:07:31;;;;;;;7.30;6.32;;;;;;;12.84;35.50;94997.72;5033375;28;20106;-63
2022/04/20 09:09:57;;;;;;;8.25;5.97;;;;;;;12.42;35.07;95008.25;5032082;28;20068;-63
2022/04/20 09:12:23;;;;;;;7.95;6.07;;;;;;;12.33;34.77;94986.13;5032902;28;20048;-62
2022/04/20 09:14:50;;;;;;;6.93;6.43;;;;;;;12.39;35.71;95011.56;5033628;28;20029;-64
2022/04/20 09:17:18;;;;;;;8.43;6.55;;;;;;;12.44;35.41;95008.72;5033357;28;20037;-64
2022/04/20 09:19:48;;;;;;;6.78;6.15;;;;;;;12.42;34.32;94986.13;5032075;28;20033;-65
2022/04/20 09:22:20;;;;;;;6.70;6.20;;;;;;;12.15;34.13;94937.41;5032941;28;20030;-63
2022/04/20 09:25:07;;;;;;;5.93;5.32;;;;;;;12.35;34.25;95010.63;5033762;28;20029;-63
2022/04/20 09:27:35;;;;;;;6.53;5.13;;;;;;;12.08;34.15;94917.66;5033320;28;20025;-65
2022/04/20 09:30:01;;;;;;;4.90;4.47;;;;;;;12.83;33.07;94998.84;5032980;28;20033;-66
2022/04/20 09:32:41;;;;;;;53.80;24.52;;;;;;;13.17;36.33;95005.13;5031643;28;20021;-67
2022/04/20 09:35:12;;;;;;;8.43;4.90;;;;;;;12.94;32.41;94983.22;5031102;28;20026;-65
2022/04/20 09:37:39;;;;;;;7.70;4.55;;;;;;;12.69;32.13;94995.59;5033321;28;20396;-66
2022/04/20 09:40:06;;;;;;;5.63;4.30;;;;;;;12.54;32.15;94996.94;5032640;28;20072;-65
2022/04/20 09:42:34;;;;;;;5.20;4.35;;;;;;;12.28;31.91;94982.84;5032284;28;20071;-64
2022/04/20 09:45:04;;;;;;;5.07;4.40;;;;;;;11.80;32.14;94997.19;5033006;28;20109;-63
2022/04/20 09:50:26;;;;;;;121.95;46.70;;;;;;;12.79;39.19;94989.91;5031402;28;20056;-70
2022/04/20 09:52:58;;;;;;;8.70;6.30;;;;;;;13.20;31.93;94989.19;5032639;28;20036;-64
2022/04/20 09:55:37;;;;;;;4.93;4.15;;;;;;;12.57;32.88;94992.81;5032588;28;20025;-64
2022/04/20 09:58:10;;;;;;;6.82;4.80;;;;;;;13.06;31.87;94974.56;5032651;28;20382;-65
2022/04/20 10:00:45;;;;;;;4.82;4.40;;;;;;;13.69;31.45;94975.38;5030877;28;20117;-63
2022/04/20 10:03:21;;;;;;;5.65;4.90;;;;;;;12.53;31.83;94967.88;5031228;28;20473;-66
2022/04/20 10:05:47;;;;;;;6.25;4.72;;;;;;;12.69;31.36;94939.53;5030283;28;20128;-65
2022/04/20 10:08:12;;;;;;;6.45;4.63;;;;;;;12.83;30.66;94944.66;5032333;28;20139;-65
2022/04/20 10:10:38;;;;;;;5.38;4.88;;;;;;;13.13;30.48;94951.56;5032119;28;20029;-66
2022/04/20 10:13:04;;;;;;;6.72;4.40;;;;;;;13.17;30.16;94970.38;5030727;28;20183;-65
2022/04/20 10:18:21;;;;;;;5.25;4.75;;;;;;;13.60;30.31;94969.31;5031846;28;20390;-64
2022/04/20 10:20:54;;;;;;;28.08;15.88;;;;;;;13.83;37.13;94978.56;5030770;28;20025;-64
2022/04/20 10:23:22;;;;;;;13.23;8.55;;;;;;;14.42;32.03;94972.16;5032157;28;20063;-67
2022/04/20 10:25:53;;;;;;;12.35;7.68;;;;;;;14.59;30.17;94933.72;5032366;28;20022;-65
2022/04/20 10:28:27;;;;;;;11.27;7.25;;;;;;;14.94;30.91;94963.53;5031422;28;20025;-66
2022/04/20 10:30:59;;;;;;;9.20;6.68;;;;;;;14.74;31.44;94935.75;5031336;28;20029;-64
2022/04/20 10:33:25;;;;;;;5.82;4.82;;;;;;;14.79;27.81;94938.19;5032041;28;20032;-65
2022/04/20 10:36:05;;;;;;;6.15;4.97;;;;;;;14.77;28.92;94938.53;5031151;28;20053;-66
2022/04/20 10:38:32;;;;;;;5.10;4.55;;;;;;;14.86;27.54;94922.38;5029807;28;20072;-66
2022/04/20 10:41:05;;;;;;;5.60;4.30;;;;;;;15.48;26.87;94956.00;5029731;28;20036;-65
2022/04/20 10:43:34;;;;;;;4.80;4.30;;;;;;;15.13;27.15;94955.72;5030827;28;20075;-65
2022/04/20 10:46:08;;;;;;;5.00;4.50;;;;;;;15.25;27.07;94931.59;5029646;28;20594;-65
2022/04/20 10:48:51;;;;;;;4.18;3.83;;;;;;;15.60;26.16;94937.16;5030251;28;20079;-66
2022/04/20 10:51:22;;;;;;;6.28;4.55;;;;;;;15.32;26.40;94923.75;5028858;28;20032;-65
2022/04/20 10:53:50;;;;;;;6.05;5.53;;;;;;;14.59;26.53;94926.50;5031600;28;20409;-63
2022/04/20 10:56:19;;;;;;;5.32;4.82;;;;;;;14.18;27.00;94925.53;5030027;28;20021;-63
2022/04/20 10:59:06;;;;;;;5.22;4.82;;;;;;;15.02;25.83;94933.97;5031541;28;20438;-63
2022/04/20 11:01:31;;;;;;;5.47;5.07;;;;;;;14.61;26.49;94916.25;5030841;28;20231;-63
2022/04/20 11:04:05;;;;;;;5.28;4.70;;;;;;;13.87;27.32;94922.53;5031136;28;20033;-63
2022/04/20 11:07:12;;;;;;;9.27;4.47;;;;;;;14.77;25.82;94922.47;5029337;28;20124;-62
2022/04/20 11:09:48;;;;;;;5.85;5.03;;;;;;;14.07;26.38;94915.56;5023223;28;20119;-62
2022/04/20 11:21:07;;;;;;;5.97;5.32;;;;;;;14.50;27.68;94909.78;5029818;28;20155;-63
2022/04/20 11:23:53;;;;;;;6.93;5.47;;;;;;;15.06;26.12;94908.06;5030897;28;20025;-63
2022/04/20 11:26:28;;;;;;;5.82;5.10;;;;;;;15.15;26.23;94877.69;5029514;28;20482;-67
2022/04/20 11:28:59;;;;;;;6.05;5.55;;;;;;;14.69;27.67;94901.16;5028242;28;20025;-63
2022/04/20 11:31:25;;;;;;;6.40;5.80;;;;;;;14.82;28.43;94900.06;5030290;28;20049;-65
2022/04/20 11:33:52;;;;;;;6.68;6.13;;;;;;;15.27;28.36;94874.97;5029752;28;20063;-64
2022/04/20 11:36:18;;;;;;;7.43;5.80;;;;;;;14.58;28.30;94871.41;5028087;28;20104;-65
2022/04/20 11:38:47;;;;;;;6.50;6.00;;;;;;;14.53;27.83;94901.06;5030600;28;20049;-64
2022/04/20 11:41:14;;;;;;;6.53;6.03;;;;;;;14.41;27.84;94898.34;5029765;28;20478;-65
2022/04/20 11:43:40;;;;;;;7.45;4.80;;;;;;;14.55;27.93;94885.47;5031269;28;20025;-65
2022/04/20 11:46:10;;;;;;;6.22;5.72;;;;;;;14.86;28.56;94879.53;5030074;28;20068;-64
2022/04/20 11:48:36;;;;;;;6.20;5.80;;;;;;;14.28;29.07;94868.16;5031569;28;20481;-65
2022/04/20 11:51:07;;;;;;;6.50;5.97;;;;;;;14.64;28.75;94880.78;5030308;28;20045;-64
2022/04/20 11:53:37;;;;;;;6.70;6.07;;;;;;;14.60;28.67;94887.13;5030953;28;20084;-63
2022/04/20 11:56:04;;;;;;;6.25;5.65;;;;;;;14.70;28.04;94863.38;5031181;28;20030;-63
2022/04/20 11:58:30;;;;;;;6.70;5.35;;;;;;;14.40;28.66;94870.81;5035153;28;20053;-64
2022/04/20 12:01:03;;;;;;;5.72;5.22;;;;;;;14.59;27.89;94829.34;5033595;28;20053;-64
2022/04/20 12:03:33;;;;;;;5.60;5.10;;;;;;;14.82;28.24;94878.63;5035112;28;20037;-64